Time;durP1;ratioP1;P1;durP2;ratioP2;P2;SDS_P1;SDS_P2;PMS_P1;PMS_P2;Temp;Humidity;BMP_temperature;BMP_pressure;BME280_temperature;BME280_humidity;BME280_pressure;Samples;Min_cycle;Max_cycle;Signal;HPM_P1;HPM_P2
2023/01/28 00:01:56;;;;;;;5.68;5.15;;;4.00;99.90;;;;;;4938620;28;88063;-76
2023/01/28 00:04:23;;;;;;;6.82;6.28;;;4.00;99.90;;;;;;4937843;28;91591;-76
2023/01/28 00:06:52;;;;;;;6.22;5.72;;;4.00;99.90;;;;;;4937680;28;89210;-76
2023/01/28 00:09:22;;;;;;;6.70;6.20;;;4.00;99.90;;;;;;4938575;28;88286;-76
2023/01/28 00:11:49;;;;;;;6.40;5.88;;;3.90;99.90;;;;;;4939348;28;89119;-76
2023/01/28 00:14:16;;;;;;;7.28;6.78;;;3.90;99.90;;;;;;4921747;28;91710;-76
2023/01/28 00:16:43;;;;;;;6.70;6.07;;;4.00;99.90;;;;;;4937859;28;88855;-76
2023/01/28 00:19:10;;;;;;;6.25;5.72;;;3.90;99.90;;;;;;4938122;28;88339;-76
2023/01/28 00:21:37;;;;;;;6.45;5.95;;;3.90;99.90;;;;;;4922143;28;88865;-76
2023/01/28 00:24:05;;;;;;;6.45;5.95;;;3.90;99.90;;;;;;4939388;28;88499;-76
2023/01/28 00:26:32;;;;;;;7.25;6.65;;;3.90;99.90;;;;;;4938087;28;88123;-76
2023/01/28 00:28:59;;;;;;;6.80;6.20;;;3.90;99.90;;;;;;4938175;28;88661;-76
2023/01/28 00:31:28;;;;;;;6.80;6.20;;;3.90;99.90;;;;;;4937623;28;91332;-76
2023/01/28 00:33:56;;;;;;;6.88;6.18;;;4.00;99.90;;;;;;4938336;28;91045;-76
2023/01/28 00:36:24;;;;;;;5.57;5.18;;;4.00;99.90;;;;;;4937622;28;89376;-76
2023/01/28 00:38:53;;;;;;;7.03;6.43;;;4.00;99.90;;;;;;4921550;28;91550;-76
2023/01/28 00:41:22;;;;;;;6.60;6.00;;;4.00;99.90;;;;;;4937286;28;89569;-76
2023/01/28 00:43:51;;;;;;;6.60;6.10;;;4.00;99.90;;;;;;4938968;28;89609;-76
2023/01/28 00:46:19;;;;;;;6.95;6.35;;;4.00;99.90;;;;;;4937653;28;88004;-76
2023/01/28 00:48:46;;;;;;;6.70;6.10;;;4.00;99.90;;;;;;4937578;28;91057;-76
2023/01/28 00:51:16;;;;;;;6.57;5.97;;;4.00;99.90;;;;;;4938919;28;88795;-76
2023/01/28 00:53:43;;;;;;;7.45;6.47;;;4.10;99.90;;;;;;4937648;28;90752;-76
2023/01/28 00:56:13;;;;;;;7.40;6.70;;;4.10;99.90;;;;;;4939203;28;87935;-76
2023/01/28 00:58:41;;;;;;;7.70;6.80;;;4.10;99.90;;;;;;4937182;28;90780;-76
2023/01/28 01:01:14;;;;;;;7.32;6.72;;;4.10;99.90;;;;;;4937666;28;88896;-76
2023/01/28 01:03:42;;;;;;;6.50;6.00;;;4.10;99.90;;;;;;4937540;28;91265;-76
2023/01/28 01:06:10;;;;;;;7.53;6.82;;;4.10;99.90;;;;;;4921229;28;88794;-76
2023/01/28 01:08:41;;;;;;;7.78;7.07;;;4.10;99.90;;;;;;4937225;28;91177;-76
2023/01/28 01:11:10;;;;;;;6.70;6.20;;;4.10;99.90;;;;;;4947520;28;91587;-76
2023/01/28 01:13:38;;;;;;;6.97;6.20;;;4.10;99.90;;;;;;4937161;28;91052;-76
2023/01/28 01:16:15;;;;;;;6.93;6.30;;;4.10;99.90;;;;;;4937464;28;89700;-76
2023/01/28 01:18:42;;;;;;;6.85;6.22;;;4.10;99.90;;;;;;4938115;28;90784;-76
2023/01/28 01:21:12;;;;;;;6.68;6.18;;;4.10;99.90;;;;;;4924493;28;91257;-76
2023/01/28 01:23:39;;;;;;;8.13;7.32;;;4.20;99.90;;;;;;4940683;28;90373;-76
2023/01/28 01:26:06;;;;;;;7.15;6.43;;;4.20;99.90;;;;;;4940932;28;88081;-76
2023/01/28 01:28:34;;;;;;;6.70;6.07;;;4.10;99.90;;;;;;4924465;28;90629;-76
2023/01/28 01:31:07;;;;;;;6.80;6.10;;;4.10;99.90;;;;;;4941605;28;89775;-76
2023/01/28 01:33:34;;;;;;;6.95;6.43;;;4.20;99.90;;;;;;4942064;28;89315;-76
2023/01/28 01:36:01;;;;;;;7.00;6.20;;;4.10;99.90;;;;;;4956747;28;94654;-76
2023/01/28 01:38:29;;;;;;;7.07;6.45;;;4.10;99.90;;;;;;4940225;28;91687;-76
2023/01/28 01:41:00;;;;;;;7.45;6.75;;;4.10;99.90;;;;;;4940414;28;91667;-76
2023/01/28 01:43:49;;;;;;;7.00;6.40;;;4.20;99.90;;;;;;4924628;28;91257;-76
2023/01/28 01:46:42;;;;;;;7.10;6.50;;;4.20;99.90;;;;;;4924407;28;88441;-76
2023/01/28 01:49:23;;;;;;;6.70;6.10;;;4.20;99.90;;;;;;4942076;28;88489;-76
2023/01/28 01:52:01;;;;;;;7.05;6.45;;;4.20;99.90;;;;;;4956674;28;91362;-76
2023/01/28 01:54:30;;;;;;;7.75;6.65;;;4.10;99.90;;;;;;4941678;28;88763;-76
2023/01/28 01:57:01;;;;;;;4.93;4.53;;;4.10;99.90;;;;;;4940233;28;88855;-76
2023/01/28 01:59:32;;;;;;;6.18;5.68;;;4.00;99.90;;;;;;4923221;28;91924;-76
2023/01/28 02:02:03;;;;;;;5.72;5.22;;;4.00;99.90;;;;;;4940179;28;91272;-76
2023/01/28 02:04:34;;;;;;;5.97;5.47;;;4.00;99.90;;;;;;4939937;28;91590;-76
2023/01/28 02:07:02;;;;;;;6.30;5.70;;;3.90;99.90;;;;;;4939944;28;89689;-76
2023/01/28 02:09:31;;;;;;;6.05;5.43;;;3.90;99.90;;;;;;4941271;28;88331;-76
2023/01/28 02:12:20;;;;;;;6.15;5.65;;;3.90;99.90;;;;;;4940021;28;91610;-76
2023/01/28 02:14:53;;;;;;;6.18;5.55;;;3.90;99.90;;;;;;4940166;28;91172;-76
2023/01/28 02:17:21;;;;;;;7.35;5.65;;;3.90;99.90;;;;;;4941661;28;88928;-76
2023/01/28 02:19:56;;;;;;;6.55;5.95;;;4.00;99.90;;;;;;4939637;28;88652;-76
2023/01/28 02:22:28;;;;;;;6.35;5.63;;;4.00;99.90;;;;;;4939464;28;92038;-76
2023/01/28 02:25:24;;;;;;;5.97;5.25;;;4.00;99.90;;;;;;4940072;28;91607;-76
2023/01/28 02:27:54;;;;;;;6.85;5.60;;;4.10;99.90;;;;;;4924183;28;89173;-76
2023/01/28 02:30:34;;;;;;;5.55;5.05;;;4.10;99.90;;;;;;4955676;28;89824;-76
2023/01/28 02:33:08;;;;;;;4.65;4.15;;;4.10;99.90;;;;;;4939663;28;90126;-76
2023/01/28 02:35:52;;;;;;;4.55;3.97;;;4.00;99.90;;;;;;4941244;28;88625;-76
2023/01/28 02:38:30;;;;;;;5.90;5.30;;;4.00;99.90;;;;;;4939836;28;89507;-76
2023/01/28 02:41:09;;;;;;;5.95;4.82;;;4.00;99.90;;;;;;4956516;28;88368;-76
2023/01/28 02:43:42;;;;;;;5.20;4.70;;;4.00;99.90;;;;;;4939396;28;91841;-76
2023/01/28 02:49:09;;;;;;;4.68;4.28;;;4.00;99.90;;;;;;4939397;28;89737;-76
2023/01/28 02:52:03;;;;;;;4.40;4.00;;;4.00;99.90;;;;;;4939354;28;91110;-76
2023/01/28 02:55:14;;;;;;;5.05;4.35;;;4.10;99.90;;;;;;4939704;28;88944;-76
2023/01/28 02:58:01;;;;;;;6.50;4.97;;;4.00;99.90;;;;;;4937478;28;90972;-76
2023/01/28 03:01:14;;;;;;;6.03;5.53;;;4.00;99.90;;;;;;4938352;28;88667;-76
2023/01/28 03:03:47;;;;;;;5.75;5.22;;;4.00;99.90;;;;;;4928657;28;91442;-76
2023/01/28 03:06:20;;;;;;;5.45;4.95;;;4.00;99.90;;;;;;4923232;28;90377;-77
2023/01/28 03:37:08;;;;;;;5.88;4.10;;;3.90;99.90;;;;;;4941975;28;90659;-76
2023/01/28 03:39:37;;;;;;;5.03;3.90;;;3.90;99.90;;;;;;4939746;28;88502;-76
2023/01/28 03:42:11;;;;;;;4.30;3.90;;;3.90;99.90;;;;;;4937975;28;92015;-77
2023/01/28 03:45:02;;;;;;;4.45;4.05;;;4.00;99.90;;;;;;4939193;28;88955;-76
2023/01/28 03:47:31;;;;;;;4.00;3.60;;;4.00;99.90;;;;;;4938498;28;90736;-76
2023/01/28 03:50:02;;;;;;;4.05;3.70;;;4.00;99.90;;;;;;4922505;28;91317;-77
2023/01/28 03:52:35;;;;;;;6.10;4.10;;;4.00;99.90;;;;;;4938487;28;91142;-76
2023/01/28 03:55:15;;;;;;;4.53;4.10;;;4.00;99.90;;;;;;4938463;28;88077;-76
2023/01/28 03:57:43;;;;;;;4.53;4.03;;;4.00;99.90;;;;;;4938087;28;88385;-76
2023/01/28 04:00:12;;;;;;;4.22;3.92;;;4.00;99.90;;;;;;4922540;28;91061;-76
2023/01/28 04:02:42;;;;;;;4.32;3.70;;;4.00;99.90;;;;;;4938350;28;90742;-76
2023/01/28 04:05:18;;;;;;;5.72;4.00;;;4.00;99.90;;;;;;4938428;28;88706;-76
2023/01/28 04:07:50;;;;;;;4.10;3.70;;;4.10;99.90;;;;;;4954345;28;91131;-76
2023/01/28 04:10:25;;;;;;;5.53;3.63;;;4.10;99.90;;;;;;4939277;28;88857;-76
2023/01/28 04:13:03;;;;;;;4.53;4.20;;;4.00;99.90;;;;;;4923109;28;91700;-76
2023/01/28 04:15:30;;;;;;;4.70;4.00;;;4.00;99.90;;;;;;4938291;28;89803;-76
2023/01/28 04:17:57;;;;;;;9.10;4.35;;;4.00;99.90;;;;;;4921639;28;90580;-76
2023/01/28 04:20:28;;;;;;;4.55;4.15;;;4.10;99.90;;;;;;4922478;28;91221;-76
2023/01/28 04:22:58;;;;;;;4.72;4.07;;;4.10;99.90;;;;;;4937879;28;91153;-76
2023/01/28 04:25:25;;;;;;;4.55;4.15;;;4.10;99.90;;;;;;4938068;28;89702;-76
2023/01/28 04:27:52;;;;;;;4.68;4.25;;;4.10;99.90;;;;;;4922046;28;90670;-76
2023/01/28 04:30:22;;;;;;;6.28;4.45;;;4.20;99.90;;;;;;4937866;28;91520;-76
2023/01/28 04:33:11;;;;;;;4.15;3.78;;;4.20;99.90;;;;;;4937792;28;91019;-76
2023/01/28 04:35:53;;;;;;;4.97;4.47;;;4.20;99.90;;;;;;4937525;28;88955;-76
2023/01/28 04:38:31;;;;;;;4.60;4.20;;;4.20;99.90;;;;;;4953976;28;91359;-76
2023/01/28 04:41:19;;;;;;;4.65;4.25;;;4.20;99.90;;;;;;4924440;28;91413;-76
2023/01/28 04:43:48;;;;;;;4.32;3.95;;;4.20;99.90;;;;;;4937514;28;91052;-76
2023/01/28 04:46:20;;;;;;;4.13;3.72;;;4.20;99.90;;;;;;4937903;28;88811;-76
2023/01/28 04:49:03;;;;;;;4.85;4.35;;;4.20;99.90;;;;;;4937348;28;90730;-76
2023/01/28 04:51:40;;;;;;;5.13;4.32;;;4.20;99.90;;;;;;4938942;28;88788;-76
2023/01/28 04:54:33;;;;;;;4.38;3.95;;;4.20;99.90;;;;;;4945011;28;87705;-76
2023/01/28 04:57:03;;;;;;;5.13;4.45;;;4.20;99.90;;;;;;4937305;28;89043;-76
2023/01/28 04:59:31;;;;;;;4.45;4.00;;;4.20;99.90;;;;;;4920591;28;91075;-76
2023/01/28 05:01:58;;;;;;;4.60;4.20;;;4.20;99.90;;;;;;4920753;28;92216;-76
2023/01/28 05:04:25;;;;;;;4.22;3.83;;;4.20;99.90;;;;;;4937583;28;91566;-76
2023/01/28 05:06:52;;;;;;;4.40;4.00;;;4.30;99.90;;;;;;4937386;28;89011;-76
2023/01/28 05:09:24;;;;;;;5.18;4.55;;;4.30;99.90;;;;;;4953703;28;90892;-76
2023/01/28 05:11:51;;;;;;;4.78;4.32;;;4.30;99.90;;;;;;4937183;28;90668;-76
2023/01/28 05:14:18;;;;;;;5.20;4.75;;;4.30;99.90;;;;;;4937329;28;91088;-76
2023/01/28 05:16:51;;;;;;;5.07;4.57;;;4.30;99.90;;;;;;4921853;28;88727;-76
2023/01/28 05:19:18;;;;;;;5.97;4.18;;;4.20;99.90;;;;;;4937697;28;90353;-76
2023/01/28 05:21:46;;;;;;;5.57;4.72;;;4.20;99.90;;;;;;4937091;28;91110;-76
2023/01/28 05:24:33;;;;;;;5.13;4.32;;;4.20;99.90;;;;;;4946905;28;88451;-76
2023/01/28 05:27:00;;;;;;;4.57;4.18;;;4.20;99.90;;;;;;4952799;28;89556;-76
2023/01/28 05:29:27;;;;;;;4.53;4.13;;;4.20;99.90;;;;;;4920927;28;90791;-76
2023/01/28 05:31:54;;;;;;;5.28;4.78;;;4.20;99.90;;;;;;4938413;28;88769;-76
2023/01/28 05:34:21;;;;;;;4.82;4.35;;;4.20;99.90;;;;;;4952956;28;91607;-76
2023/01/28 05:36:49;;;;;;;4.90;4.47;;;4.20;99.90;;;;;;4953448;28;88144;-76
2023/01/28 05:39:34;;;;;;;5.47;4.97;;;4.20;99.90;;;;;;4937019;28;89644;-76
2023/01/28 05:42:01;;;;;;;5.55;4.78;;;4.10;99.90;;;;;;4920779;28;91939;-76
2023/01/28 05:44:31;;;;;;;5.03;4.57;;;4.20;99.90;;;;;;4921626;28;90966;-76
2023/01/28 05:47:08;;;;;;;4.88;4.32;;;4.20;99.90;;;;;;4936669;28;88020;-76
2023/01/28 05:50:00;;;;;;;5.40;4.47;;;4.10;99.90;;;;;;4935884;28;88165;-76
2023/01/28 05:52:30;;;;;;;5.32;4.72;;;4.10;99.90;;;;;;4937888;28;89304;-76
2023/01/28 05:54:57;;;;;;;4.70;4.00;;;4.10;99.90;;;;;;4936717;28;91769;-76
2023/01/28 05:57:25;;;;;;;5.28;4.78;;;4.10;99.90;;;;;;4936772;28;89190;-76
2023/01/28 05:59:52;;;;;;;5.13;4.50;;;4.10;99.90;;;;;;4936478;28;91031;-76
2023/01/28 06:02:19;;;;;;;9.32;5.15;;;4.10;99.90;;;;;;4936552;28;91485;-76
2023/01/28 06:04:46;;;;;;;5.78;5.10;;;4.10;99.90;;;;;;4937829;28;90820;-76
2023/01/28 06:07:18;;;;;;;5.72;5.13;;;4.10;99.90;;;;;;4940043;28;89226;-76
2023/01/28 06:09:47;;;;;;;6.45;5.55;;;4.10;99.90;;;;;;4925043;28;90751;-76
2023/01/28 06:12:17;;;;;;;7.68;5.72;;;4.10;99.90;;;;;;4956150;28;89871;-76
2023/01/28 06:15:05;;;;;;;8.18;6.72;;;4.10;99.90;;;;;;4949267;28;88321;-76
2023/01/28 06:17:56;;;;;;;7.18;6.25;;;4.10;99.90;;;;;;4939887;28;89021;-76
2023/01/28 06:20:28;;;;;;;9.20;6.88;;;4.00;99.90;;;;;;4956128;28;90068;-76
2023/01/28 06:22:57;;;;;;;7.68;6.88;;;4.00;99.90;;;;;;4956306;28;91657;-76
2023/01/28 06:25:24;;;;;;;10.07;6.78;;;4.00;99.90;;;;;;4939847;28;90545;-76
2023/01/28 06:27:51;;;;;;;7.97;6.72;;;4.00;99.90;;;;;;4924055;28;89078;-76
2023/01/28 06:30:18;;;;;;;10.20;7.50;;;4.00;99.90;;;;;;4941375;28;88222;-76
2023/01/28 06:32:45;;;;;;;11.27;7.50;;;4.00;99.90;;;;;;4940963;28;88048;-76
2023/01/28 06:35:12;;;;;;;7.43;6.47;;;4.00;99.90;;;;;;4940111;28;87578;-76
2023/01/28 06:37:40;;;;;;;7.63;6.50;;;4.00;99.90;;;;;;4941056;28;88295;-76
2023/01/28 06:40:08;;;;;;;8.40;6.88;;;4.00;99.90;;;;;;4939733;28;88528;-76
2023/01/28 06:42:35;;;;;;;9.75;6.97;;;4.00;99.90;;;;;;4938802;28;92405;-76
2023/01/28 06:45:02;;;;;;;10.57;6.63;;;4.00;99.90;;;;;;4940655;28;89418;-76
2023/01/28 06:47:29;;;;;;;7.88;6.60;;;4.00;99.90;;;;;;4923265;28;89457;-76
2023/01/28 06:49:56;;;;;;;9.70;7.32;;;4.10;99.90;;;;;;4940737;28;88925;-76
2023/01/28 06:52:23;;;;;;;8.90;6.65;;;4.10;99.90;;;;;;4939339;28;88934;-76
2023/01/28 06:54:50;;;;;;;8.02;7.18;;;4.10;99.90;;;;;;4939819;28;88837;-76
2023/01/28 06:57:17;;;;;;;8.63;7.32;;;4.00;99.90;;;;;;4939353;28;88173;-76
2023/01/28 06:59:44;;;;;;;9.25;7.28;;;4.10;99.90;;;;;;4939366;28;88731;-76
2023/01/28 07:02:11;;;;;;;8.90;6.50;;;4.00;99.90;;;;;;4939022;28;89128;-76
2023/01/28 07:04:38;;;;;;;10.32;6.90;;;4.10;99.90;;;;;;4940482;28;94549;-76
2023/01/28 07:07:05;;;;;;;7.88;6.38;;;4.10;99.90;;;;;;4938891;28;88768;-76
2023/01/28 07:09:32;;;;;;;9.43;6.70;;;4.10;99.90;;;;;;4939098;28;88296;-76
2023/01/28 07:11:59;;;;;;;8.82;7.00;;;4.10;99.90;;;;;;4939293;28;88190;-76
2023/01/28 07:14:26;;;;;;;9.13;7.18;;;4.10;99.90;;;;;;4955199;28;88990;-76
2023/01/28 07:16:52;;;;;;;7.30;6.32;;;4.10;99.90;;;;;;4940576;28;88293;-76
2023/01/28 07:19:19;;;;;;;7.97;7.00;;;4.10;99.90;;;;;;4940196;28;88200;-76
2023/01/28 07:21:46;;;;;;;8.60;6.55;;;4.10;99.90;;;;;;4938724;28;91775;-76
2023/01/28 07:24:13;;;;;;;7.10;6.40;;;4.10;99.90;;;;;;4939200;28;88758;-76
2023/01/28 07:26:40;;;;;;;8.00;5.88;;;4.10;99.90;;;;;;4940245;28;88346;-76
2023/01/28 07:29:08;;;;;;;6.97;5.72;;;4.10;99.90;;;;;;4939909;28;88060;-76
2023/01/28 07:31:35;;;;;;;7.70;6.03;;;4.10;99.90;;;;;;4922249;28;91218;-76
2023/01/28 07:34:02;;;;;;;8.00;6.50;;;4.10;99.90;;;;;;4940095;28;90981;-76
2023/01/28 07:36:29;;;;;;;8.98;6.32;;;4.10;99.90;;;;;;4938644;28;89164;-77
2023/01/28 07:38:56;;;;;;;8.15;7.35;;;4.10;99.90;;;;;;4938915;28;90893;-78
2023/01/28 07:41:23;;;;;;;8.18;6.70;;;4.10;99.90;;;;;;4954886;28;91122;-77
2023/01/28 07:43:50;;;;;;;6.80;6.10;;;4.10;99.90;;;;;;4923012;28;89807;-77
2023/01/28 07:46:17;;;;;;;9.18;7.10;;;4.10;99.90;;;;;;4938668;28;89852;-77
2023/01/28 07:48:44;;;;;;;8.35;7.50;;;4.00;99.90;;;;;;4939612;28;87450;-77
2023/01/28 07:51:11;;;;;;;8.50;7.70;;;3.90;99.90;;;;;;4938461;28;88019;-77
2023/01/28 07:53:38;;;;;;;9.88;6.97;;;3.80;99.90;;;;;;4940151;28;88654;-77
2023/01/28 07:56:05;;;;;;;8.82;7.93;;;3.60;99.90;;;;;;4938341;28;94620;-77
2023/01/28 07:58:33;;;;;;;7.88;7.05;;;3.50;99.90;;;;;;4938329;28;88403;-77
2023/01/28 08:01:01;;;;;;;8.30;7.50;;;3.40;99.90;;;;;;4954832;28;88745;-77
2023/01/28 08:03:28;;;;;;;9.68;7.82;;;3.40;99.90;;;;;;4938109;28;91348;-77
2023/01/28 08:05:56;;;;;;;8.05;7.25;;;3.30;99.90;;;;;;4922499;28;88245;-77
2023/01/28 08:08:26;;;;;;;8.73;7.57;;;3.20;99.90;;;;;;4939283;28;88380;-76
2023/01/28 08:10:53;;;;;;;8.18;7.05;;;3.20;99.90;;;;;;4939327;28;87953;-77
2023/01/28 08:13:20;;;;;;;8.10;7.30;;;3.10;99.90;;;;;;4938550;28;88650;-77
2023/01/28 08:15:47;;;;;;;10.20;7.40;;;3.10;99.90;;;;;;4939687;28;88098;-77
2023/01/28 08:18:16;;;;;;;9.05;7.80;;;3.10;99.90;;;;;;4939184;28;88611;-77
2023/01/28 08:20:45;;;;;;;8.63;7.72;;;3.20;99.90;;;;;;4939296;28;90014;-77
2023/01/28 08:23:18;;;;;;;9.80;7.97;;;3.30;99.90;;;;;;4921886;28;91862;-77
2023/01/28 08:25:47;;;;;;;8.82;7.80;;;3.40;99.90;;;;;;4938145;28;88146;-77
2023/01/28 08:28:15;;;;;;;9.05;8.02;;;3.40;99.90;;;;;;4938879;28;95621;-77
2023/01/28 08:30:43;;;;;;;9.82;8.45;;;3.50;99.90;;;;;;4939164;28;88890;-77
2023/01/28 08:33:12;;;;;;;10.07;9.02;;;3.60;99.90;;;;;;4939151;28;88767;-77
2023/01/28 08:35:39;;;;;;;9.57;8.48;;;3.60;99.90;;;;;;4937774;28;89728;-77
2023/01/28 08:38:07;;;;;;;11.98;7.97;;;3.60;99.90;;;;;;4939498;28;88266;-77
2023/01/28 08:40:34;;;;;;;9.93;8.75;;;3.60;99.90;;;;;;4939018;28;88966;-77
2023/01/28 08:43:02;;;;;;;9.65;8.65;;;3.60;99.90;;;;;;4939163;28;88051;-77
2023/01/28 08:45:30;;;;;;;11.88;9.20;;;3.50;99.90;;;;;;4953697;28;88763;-77
2023/01/28 08:48:00;;;;;;;11.23;9.73;;;3.50;99.90;;;;;;4938252;28;88334;-77
2023/01/28 08:50:34;;;;;;;10.90;9.23;;;3.60;99.90;;;;;;4939054;28;88377;-77
2023/01/28 08:53:13;;;;;;;10.40;9.30;;;3.60;99.90;;;;;;4939313;28;88709;-77
2023/01/28 08:55:40;;;;;;;11.00;8.90;;;3.70;99.90;;;;;;4938819;28;88044;-76
2023/01/28 08:58:11;;;;;;;9.02;8.02;;;3.70;99.90;;;;;;4921407;28;89828;-76
2023/01/28 09:00:39;;;;;;;10.73;8.55;;;3.70;99.90;;;;;;4953881;28;88752;-77
2023/01/28 09:03:07;;;;;;;10.30;9.13;;;3.70;99.90;;;;;;4954041;28;88879;-77
2023/01/28 09:05:36;;;;;;;13.82;8.98;;;3.80;99.90;;;;;;4938783;28;87907;-77
2023/01/28 09:08:08;;;;;;;9.45;8.32;;;3.90;99.90;;;;;;4937337;28;91677;-77
2023/01/28 09:10:40;;;;;;;10.25;8.35;;;3.90;99.90;;;;;;4937116;28;92429;-77
2023/01/28 09:13:09;;;;;;;11.07;8.75;;;4.00;99.90;;;;;;4938986;28;89602;-77
2023/01/28 09:15:37;;;;;;;8.68;7.78;;;4.20;99.90;;;;;;4937389;28;89418;-77
2023/01/28 09:18:04;;;;;;;8.55;7.55;;;4.30;99.90;;;;;;4937421;28;90844;-77
2023/01/28 09:20:32;;;;;;;8.20;7.30;;;4.50;99.90;;;;;;4938504;28;88106;-77
2023/01/28 09:23:00;;;;;;;8.07;7.05;;;4.60;99.90;;;;;;4937074;28;91092;-77
2023/01/28 09:25:27;;;;;;;7.80;6.85;;;4.70;99.90;;;;;;4938642;28;88525;-77
2023/01/28 09:27:54;;;;;;;7.25;6.45;;;4.80;99.90;;;;;;4937390;28;89684;-77
2023/01/28 09:30:21;;;;;;;6.28;5.68;;;4.80;99.90;;;;;;4936819;28;98986;-77
2023/01/28 09:32:50;;;;;;;6.65;6.05;;;4.90;99.90;;;;;;4938503;28;88989;-77
2023/01/28 09:35:18;;;;;;;7.68;6.40;;;5.10;99.90;;;;;;4938234;28;88774;-77
2023/01/28 09:37:45;;;;;;;9.45;6.32;;;5.30;99.90;;;;;;4937134;28;90924;-77
2023/01/28 09:40:20;;;;;;;7.53;6.22;;;5.40;99.90;;;;;;4922813;28;91528;-77
2023/01/28 09:43:16;;;;;;;7.30;6.60;;;5.50;99.90;;;;;;4941487;28;88699;-77
2023/01/28 09:45:47;;;;;;;7.80;7.00;;;5.50;99.90;;;;;;4942134;28;88480;-77
2023/01/28 09:48:21;;;;;;;7.25;6.55;;;5.40;99.90;;;;;;4941970;28;88257;-77
2023/01/28 09:50:52;;;;;;;8.32;6.30;;;5.40;99.90;;;;;;4939910;28;92038;-77
2023/01/28 09:53:30;;;;;;;10.10;8.00;;;5.40;99.90;;;;;;4942449;28;88701;-77
2023/01/28 09:56:36;;;;;;;7.07;6.38;;;5.40;99.90;;;;;;4941909;28;88074;-77
2023/01/28 09:59:18;;;;;;;7.85;7.05;;;5.40;99.90;;;;;;4956448;28;88094;-77
2023/01/28 10:01:48;;;;;;;9.55;7.07;;;5.40;99.90;;;;;;4941041;28;88829;-77
2023/01/28 10:04:51;;;;;;;8.93;6.30;;;5.50;99.90;;;;;;4940459;28;88160;-77
2023/01/28 10:07:41;;;;;;;7.20;6.25;;;5.60;99.90;;;;;;4940334;28;89298;-77
2023/01/28 10:10:11;;;;;;;7.05;6.05;;;5.70;99.90;;;;;;4956688;28;88411;-77
2023/01/28 10:12:39;;;;;;;7.25;6.55;;;5.70;99.90;;;;;;4941468;28;88869;-77
2023/01/28 10:15:21;;;;;;;7.05;6.30;;;5.70;99.90;;;;;;4924134;28;91214;-77
2023/01/28 10:17:51;;;;;;;6.93;6.25;;;5.80;99.90;;;;;;4941589;28;88016;-77
2023/01/28 10:20:39;;;;;;;7.38;6.57;;;5.80;99.90;;;;;;4941738;28;88389;-77
2023/01/28 10:23:31;;;;;;;6.17;5.50;;;5.90;99.90;;;;;;4956497;28;88918;-77
2023/01/28 10:25:59;;;;;;;7.03;5.72;;;5.90;99.90;;;;;;4956412;28;89902;-77
2023/01/28 10:28:27;;;;;;;6.30;5.70;;;6.10;99.90;;;;;;4939539;28;88769;-77
2023/01/28 10:30:55;;;;;;;6.97;5.65;;;6.20;99.90;;;;;;4939821;28;91393;-77
2023/01/28 10:33:30;;;;;;;6.20;5.60;;;6.30;99.90;;;;;;4939326;28;94996;-77
2023/01/28 10:35:57;;;;;;;6.57;5.72;;;6.50;99.90;;;;;;4941393;28;88912;-77
2023/01/28 10:38:26;;;;;;;6.95;6.25;;;6.70;99.90;;;;;;4923945;28;88990;-77
2023/01/28 10:41:00;;;;;;;6.68;5.80;;;6.80;99.90;;;;;;4940538;28;88375;-77
2023/01/28 10:43:32;;;;;;;6.13;5.10;;;6.90;99.90;;;;;;4956189;28;88735;-77
2023/01/28 10:46:08;;;;;;;7.18;4.60;;;7.00;99.90;;;;;;4941364;28;88379;-77
2023/01/28 10:49:02;;;;;;;5.20;4.70;;;7.10;99.90;;;;;;4941203;28;87899;-77
2023/01/28 10:51:32;;;;;;;6.65;4.70;;;7.10;99.90;;;;;;4940480;28;88659;-77
2023/01/28 10:53:59;;;;;;;5.32;4.88;;;7.00;99.90;;;;;;4940334;28;89483;-77
2023/01/28 10:56:34;;;;;;;6.00;5.40;;;7.00;99.90;;;;;;4939472;28;89446;-77
2023/01/28 10:59:03;;;;;;;5.93;5.28;;;6.90;99.90;;;;;;4938928;28;89664;-77
2023/01/28 11:01:51;;;;;;;6.18;5.53;;;6.90;99.90;;;;;;4955649;28;88114;-77
2023/01/28 11:04:25;;;;;;;6.50;5.45;;;6.90;99.90;;;;;;4939176;28;90898;-77
2023/01/28 11:07:14;;;;;;;6.03;5.43;;;6.80;99.90;;;;;;4940600;28;88555;-77
2023/01/28 11:09:46;;;;;;;6.13;5.50;;;6.70;99.90;;;;;;4940803;28;88081;-77
2023/01/28 11:12:21;;;;;;;6.68;6.00;;;6.70;99.90;;;;;;4939334;28;91088;-77
2023/01/28 11:14:53;;;;;;;6.55;5.95;;;6.80;99.90;;;;;;4938821;28;91708;-77
2023/01/28 11:17:24;;;;;;;7.03;6.13;;;7.00;99.90;;;;;;4940200;28;88481;-78
2023/01/28 11:19:59;;;;;;;6.93;5.57;;;7.20;99.90;;;;;;4954848;28;89222;-77
2023/01/28 11:22:34;;;;;;;7.50;5.70;;;7.40;99.90;;;;;;4938813;28;91244;-77
2023/01/28 11:25:13;;;;;;;5.40;4.90;;;7.60;99.90;;;;;;4955315;28;88073;-77
2023/01/28 11:27:45;;;;;;;8.10;5.57;;;7.90;99.90;;;;;;4938654;28;91385;-77
2023/01/28 11:30:24;;;;;;;6.60;5.70;;;8.10;99.90;;;;;;4940530;28;88070;-76
2023/01/28 11:33:01;;;;;;;6.82;6.22;;;8.30;99.90;;;;;;4940170;28;88423;-76
2023/01/28 11:35:30;;;;;;;6.30;5.63;;;8.40;99.90;;;;;;4939345;28;88822;-77
2023/01/28 11:37:59;;;;;;;6.18;5.57;;;8.40;99.90;;;;;;4955129;28;94571;-76
2023/01/28 11:40:27;;;;;;;5.30;4.90;;;8.40;99.90;;;;;;4940007;28;87999;-77
2023/01/28 11:42:56;;;;;;;6.07;5.50;;;8.50;99.90;;;;;;4939630;28;88363;-77
2023/01/28 11:45:54;;;;;;;5.93;5.35;;;8.50;99.90;;;;;;4938016;28;92048;-77
2023/01/28 11:48:43;;;;;;;5.35;4.70;;;8.60;99.90;;;;;;4938709;28;88404;-76
2023/01/28 11:51:31;;;;;;;5.88;5.28;;;8.60;99.90;;;;;;4938958;28;88148;-77
2023/01/28 11:54:10;;;;;;;6.10;5.43;;;8.50;99.90;;;;;;4922076;28;91314;-77
2023/01/28 11:56:40;;;;;;;5.43;4.93;;;8.50;99.90;;;;;;4938613;28;88980;-77
2023/01/28 11:59:19;;;;;;;5.60;4.85;;;8.50;99.90;;;;;;4939275;28;89203;-77
2023/01/28 12:02:12;;;;;;;5.15;4.57;;;8.50;99.90;;;;;;4939365;28;88068;-77
2023/01/28 12:04:51;;;;;;;5.13;4.70;;;8.60;99.90;;;;;;4935132;28;90984;-77
2023/01/28 12:07:30;;;;;;;6.65;4.75;;;8.60;99.90;;;;;;4954820;28;89059;-77
2023/01/28 12:10:02;;;;;;;6.07;5.28;;;8.60;99.90;;;;;;4937906;28;91970;-77
2023/01/28 12:12:41;;;;;;;5.57;4.93;;;8.60;99.90;;;;;;4937999;28;89371;-77
2023/01/28 12:15:29;;;;;;;5.30;4.80;;;8.70;99.90;;;;;;4939532;28;88285;-77
2023/01/28 12:18:18;;;;;;;5.65;5.10;;;8.80;99.90;;;;;;4938007;28;91627;-77
2023/01/28 12:21:09;;;;;;;5.28;4.78;;;8.80;99.90;;;;;;4938147;28;91106;-77
2023/01/28 12:23:55;;;;;;;5.70;5.05;;;8.90;99.90;;;;;;4954491;28;87926;-77
2023/01/28 12:26:34;;;;;;;4.65;4.25;;;9.00;99.90;;;;;;4939583;28;88417;-77
2023/01/28 12:29:21;;;;;;;4.80;4.40;;;9.00;99.90;;;;;;4937911;28;91371;-77
2023/01/28 12:31:51;;;;;;;5.47;4.18;;;8.90;99.90;;;;;;4954354;28;88616;-77
2023/01/28 12:34:27;;;;;;;5.05;4.55;;;8.80;99.90;;;;;;4939116;28;87997;-77
2023/01/28 12:37:22;;;;;;;4.82;4.43;;;8.80;99.90;;;;;;4937881;28;88482;-77
2023/01/28 12:40:01;;;;;;;5.40;4.90;;;8.80;99.90;;;;;;4938599;28;89596;-77
2023/01/28 12:42:52;;;;;;;5.20;4.72;;;8.60;99.90;;;;;;4939329;28;88245;-77
2023/01/28 12:45:30;;;;;;;6.55;5.10;;;8.50;99.90;;;;;;4954647;28;88346;-77
2023/01/28 12:48:15;;;;;;;5.97;5.07;;;8.20;99.90;;;;;;4939231;28;88492;-77
2023/01/28 12:51:03;;;;;;;5.38;4.88;;;8.00;99.90;;;;;;4939088;28;88713;-76
2023/01/28 12:53:59;;;;;;;6.07;4.93;;;8.00;99.90;;;;;;4939264;28;88909;-77
2023/01/28 12:56:34;;;;;;;6.07;4.70;;;7.90;99.90;;;;;;4937520;28;88323;-77
2023/01/28 12:59:15;;;;;;;11.57;5.55;;;7.90;99.90;;;;;;4938722;28;88965;-77
2023/01/28 13:02:01;;;;;;;6.13;4.50;;;8.00;99.90;;;;;;4939026;28;88888;-77
2023/01/28 13:04:45;;;;;;;6.03;5.43;;;8.00;99.90;;;;;;4921234;28;91114;-77
2023/01/28 13:07:37;;;;;;;6.05;5.22;;;8.00;99.90;;;;;;4938446;28;88725;-76
2023/01/28 13:10:19;;;;;;;8.40;5.93;;;8.00;99.90;;;;;;4938638;28;88411;-77
2023/01/28 13:12:47;;;;;;;5.38;4.88;;;7.80;99.90;;;;;;4937757;28;88861;-77
2023/01/28 13:15:17;;;;;;;7.35;5.63;;;7.90;99.90;;;;;;4924078;28;91373;-77
2023/01/28 13:18:04;;;;;;;5.85;5.28;;;7.80;99.90;;;;;;4942039;28;88017;-77
2023/01/28 13:20:34;;;;;;;6.45;5.85;;;7.90;99.90;;;;;;4940897;28;88404;-77
2023/01/28 13:23:21;;;;;;;6.47;5.13;;;7.80;99.90;;;;;;4942046;28;88021;-77
2023/01/28 13:25:51;;;;;;;6.53;4.75;;;7.80;99.90;;;;;;4940962;28;90884;-77
2023/01/28 13:28:27;;;;;;;6.85;6.05;;;7.80;99.90;;;;;;4956694;28;87981;-77
2023/01/28 13:31:02;;;;;;;7.35;5.97;;;7.90;99.90;;;;;;4942210;28;88366;-77
2023/01/28 13:33:38;;;;;;;7.40;5.47;;;7.90;99.90;;;;;;4940429;28;89446;-77
2023/01/28 13:36:31;;;;;;;9.63;5.25;;;8.00;99.90;;;;;;4956571;28;88218;-77
2023/01/28 13:39:12;;;;;;;6.50;5.90;;;8.10;99.90;;;;;;4941877;28;88084;-77
2023/01/28 13:41:54;;;;;;;6.60;6.00;;;8.10;99.90;;;;;;4940859;28;88365;-77
2023/01/28 13:44:24;;;;;;;6.35;5.75;;;8.10;99.90;;;;;;4941771;28;88844;-77
2023/01/28 13:46:54;;;;;;;8.40;6.15;;;8.00;99.90;;;;;;4940610;28;90981;-77
2023/01/28 13:49:36;;;;;;;6.35;5.43;;;7.90;99.90;;;;;;4941562;28;88049;-77
2023/01/28 13:52:27;;;;;;;7.70;6.00;;;7.90;99.90;;;;;;4942020;28;88593;-77
2023/01/28 13:55:10;;;;;;;6.22;5.63;;;8.00;99.90;;;;;;4939409;28;91284;-77
2023/01/28 13:58:18;;;;;;;6.70;6.00;;;8.20;99.90;;;;;;4940066;28;91291;-77
2023/01/28 14:01:07;;;;;;;8.10;6.20;;;8.40;99.90;;;;;;4956091;28;89912;-77